sensor_id;sensor_type;location;lat;lon;timestamp;pressure;altitude;pressure_sealevel;temperature;humidity
60427;BME280;46274;47.168;27.604;2022-11-22T00:01:31;99125.00;;;0.26;85.08
60427;BME280;46274;47.168;27.604;2022-11-22T00:07:33;99141.06;;;0.46;84.24
60427;BME280;46274;47.168;27.604;2022-11-22T00:13:35;99159.16;;;0.11;85.63
60427;BME280;46274;47.168;27.604;2022-11-22T00:19:37;99179.19;;;0.36;84.30
60427;BME280;46274;47.168;27.604;2022-11-22T00:25:39;99166.03;;;0.45;83.75
60427;BME280;46274;47.168;27.604;2022-11-22T00:31:41;99156.31;;;-0.18;85.63
60427;BME280;46274;47.168;27.604;2022-11-22T00:37:43;99052.06;;;-1.07;86.14
60427;BME280;46274;47.168;27.604;2022-11-22T00:43:45;99198.97;;;-0.29;86.88
60427;BME280;46274;47.168;27.604;2022-11-22T00:49:46;99142.50;;;-0.54;86.83
60427;BME280;46274;47.168;27.604;2022-11-22T00:55:48;99188.00;;;-0.36;87.05
60427;BME280;46274;47.168;27.604;2022-11-22T01:01:50;99172.44;;;-0.52;87.50
60427;BME280;46274;47.168;27.604;2022-11-22T01:07:52;99125.19;;;-0.80;87.81
60427;BME280;46274;47.168;27.604;2022-11-22T01:13:54;99214.03;;;0.03;86.31
60427;BME280;46274;47.168;27.604;2022-11-22T01:19:56;99225.78;;;-0.21;87.56
60427;BME280;46274;47.168;27.604;2022-11-22T01:25:57;99095.47;;;-0.85;86.42
60427;BME280;46274;47.168;27.604;2022-11-22T01:31:59;99166.47;;;-0.65;86.98
60427;BME280;46274;47.168;27.604;2022-11-22T01:38:01;99152.94;;;-0.62;87.24
60427;BME280;46274;47.168;27.604;2022-11-22T01:44:23;99241.72;;;-0.10;86.81
60427;BME280;46274;47.168;27.604;2022-11-22T01:50:26;99174.66;;;-0.57;86.44
60427;BME280;46274;47.168;27.604;2022-11-22T01:56:29;99230.47;;;-0.13;86.63
60427;BME280;46274;47.168;27.604;2022-11-22T02:02:32;99234.19;;;-0.05;86.92
60427;BME280;46274;47.168;27.604;2022-11-22T02:14:43;99235.19;;;-0.17;86.98
60427;BME280;46274;47.168;27.604;2022-11-22T02:20:45;99183.19;;;-0.42;86.50
60427;BME280;46274;47.168;27.604;2022-11-22T02:26:47;99231.56;;;-0.16;86.73
60427;BME280;46274;47.168;27.604;2022-11-22T02:32:48;99251.63;;;0.09;85.35
60427;BME280;46274;47.168;27.604;2022-11-22T02:38:50;99191.50;;;-0.68;88.13
60427;BME280;46274;47.168;27.604;2022-11-22T02:44:52;99250.84;;;-0.24;86.69
60427;BME280;46274;47.168;27.604;2022-11-22T02:50:54;99228.97;;;-0.06;85.79
60427;BME280;46274;47.168;27.604;2022-11-22T02:56:55;99148.00;;;-0.46;86.21
60427;BME280;46274;47.168;27.604;2022-11-22T03:02:57;99197.09;;;-0.17;85.73
60427;BME280;46274;47.168;27.604;2022-11-22T03:08:59;99239.44;;;0.07;85.85
60427;BME280;46274;47.168;27.604;2022-11-22T03:15:01;99247.69;;;0.04;85.30
60427;BME280;46274;47.168;27.604;2022-11-22T03:21:04;99258.78;;;-0.12;86.39
60427;BME280;46274;47.168;27.604;2022-11-22T03:27:06;99204.56;;;-0.64;86.43
60427;BME280;46274;47.168;27.604;2022-11-22T03:33:07;99274.84;;;-0.03;86.32
60427;BME280;46274;47.168;27.604;2022-11-22T03:39:09;99258.53;;;-0.41;87.41
60427;BME280;46274;47.168;27.604;2022-11-22T03:45:11;99270.91;;;-0.19;86.50
60427;BME280;46274;47.168;27.604;2022-11-22T03:51:13;99243.38;;;-0.73;87.41
60427;BME280;46274;47.168;27.604;2022-11-22T03:57:14;99292.72;;;-0.69;87.33
60427;BME280;46274;47.168;27.604;2022-11-22T04:03:17;99204.50;;;-0.85;86.00
60427;BME280;46274;47.168;27.604;2022-11-22T04:09:19;99269.69;;;-0.48;86.24
60427;BME280;46274;47.168;27.604;2022-11-22T04:15:21;99226.59;;;-0.74;86.44
60427;BME280;46274;47.168;27.604;2022-11-22T04:21:22;99272.53;;;-0.83;88.19
60427;BME280;46274;47.168;27.604;2022-11-22T04:27:36;99225.88;;;-1.42;89.62
60427;BME280;46274;47.168;27.604;2022-11-22T04:33:38;99333.81;;;-0.73;89.77
60427;BME280;46274;47.168;27.604;2022-11-22T04:39:40;99300.50;;;-1.00;89.41
60427;BME280;46274;47.168;27.604;2022-11-22T04:45:42;99310.78;;;-1.18;91.13
60427;BME280;46274;47.168;27.604;2022-11-22T04:51:44;99222.47;;;-1.78;91.49
60427;BME280;46274;47.168;27.604;2022-11-22T04:58:04;99313.53;;;-1.19;91.87
60427;BME280;46274;47.168;27.604;2022-11-22T05:04:06;99282.00;;;-1.46;92.38
60427;BME280;46274;47.168;27.604;2022-11-22T05:10:08;99313.28;;;-1.39;92.55
60427;BME280;46274;47.168;27.604;2022-11-22T05:16:12;99322.94;;;-1.38;92.13
60427;BME280;46274;47.168;27.604;2022-11-22T05:22:14;99332.50;;;-1.35;93.41
60427;BME280;46274;47.168;27.604;2022-11-22T05:28:15;99343.13;;;-1.35;93.13
60427;BME280;46274;47.168;27.604;2022-11-22T05:34:17;99292.84;;;-1.61;93.01
60427;BME280;46274;47.168;27.604;2022-11-22T05:40:19;99280.78;;;-1.54;92.62
60427;BME280;46274;47.168;27.604;2022-11-22T05:46:23;99345.19;;;-1.16;92.70
60427;BME280;46274;47.168;27.604;2022-11-22T05:52:25;99234.13;;;-1.91;92.51
60427;BME280;46274;47.168;27.604;2022-11-22T05:58:27;99209.63;;;-2.06;92.85
60427;BME280;46274;47.168;27.604;2022-11-22T06:04:29;99303.50;;;-1.27;92.16
60427;BME280;46274;47.168;27.604;2022-11-22T06:10:32;99329.88;;;-0.90;90.99
60427;BME280;46274;47.168;27.604;2022-11-22T06:16:37;99353.19;;;-0.94;91.29
60427;BME280;46274;47.168;27.604;2022-11-22T06:22:39;99371.06;;;-0.96;91.94
60427;BME280;46274;47.168;27.604;2022-11-22T06:28:41;99322.59;;;-1.22;93.05
60427;BME280;46274;47.168;27.604;2022-11-22T06:34:43;99237.69;;;-1.35;91.64
60427;BME280;46274;47.168;27.604;2022-11-22T06:40:45;99363.44;;;-0.55;91.29
60427;BME280;46274;47.168;27.604;2022-11-22T06:46:46;99372.03;;;-0.85;92.21
60427;BME280;46274;47.168;27.604;2022-11-22T06:52:51;99315.59;;;-1.23;92.71
60427;BME280;46274;47.168;27.604;2022-11-22T06:58:54;99373.50;;;-0.81;92.19
60427;BME280;46274;47.168;27.604;2022-11-22T07:04:56;99269.81;;;-1.38;91.66
60427;BME280;46274;47.168;27.604;2022-11-22T07:11:26;99345.47;;;-1.08;91.78
60427;BME280;46274;47.168;27.604;2022-11-22T07:17:28;99380.75;;;-0.83;91.05
60427;BME280;46274;47.168;27.604;2022-11-22T07:23:30;99367.69;;;-0.75;88.91
60427;BME280;46274;47.168;27.604;2022-11-22T07:29:32;99357.28;;;-0.90;89.58
60427;BME280;46274;47.168;27.604;2022-11-22T07:35:34;99333.69;;;-0.60;88.19
60427;BME280;46274;47.168;27.604;2022-11-22T07:41:36;99234.81;;;-1.32;87.96
60427;BME280;46274;47.168;27.604;2022-11-22T07:47:38;99351.22;;;-0.58;87.78
60427;BME280;46274;47.168;27.604;2022-11-22T07:53:39;99296.38;;;-0.38;86.41
60427;BME280;46274;47.168;27.604;2022-11-22T07:59:41;99340.94;;;-0.62;87.11
60427;BME280;46274;47.168;27.604;2022-11-22T08:05:43;99314.53;;;0.01;85.82
60427;BME280;46274;47.168;27.604;2022-11-22T08:11:46;99374.91;;;0.32;86.08
60427;BME280;46274;47.168;27.604;2022-11-22T08:17:47;99382.19;;;0.30;85.47
60427;BME280;46274;47.168;27.604;2022-11-22T08:23:49;99372.00;;;-0.40;87.97
60427;BME280;46274;47.168;27.604;2022-11-22T08:29:51;99371.16;;;-0.41;87.72
60427;BME280;46274;47.168;27.604;2022-11-22T08:35:53;99363.50;;;-0.34;86.31
60427;BME280;46274;47.168;27.604;2022-11-22T08:41:54;99274.03;;;-0.47;86.30
60427;BME280;46274;47.168;27.604;2022-11-22T08:47:57;99385.97;;;-0.05;86.63
60427;BME280;46274;47.168;27.604;2022-11-22T08:53:59;99359.53;;;0.04;86.10
60427;BME280;46274;47.168;27.604;2022-11-22T09:00:00;99386.84;;;0.49;85.34
60427;BME280;46274;47.168;27.604;2022-11-22T09:06:05;99388.94;;;0.13;86.62
60427;BME280;46274;47.168;27.604;2022-11-22T09:12:27;99374.72;;;0.24;85.43
60427;BME280;46274;47.168;27.604;2022-11-22T09:18:29;99378.88;;;0.38;85.92
60427;BME280;46274;47.168;27.604;2022-11-22T09:24:31;99402.22;;;0.87;83.92
60427;BME280;46274;47.168;27.604;2022-11-22T09:30:33;99401.34;;;1.08;84.09
60427;BME280;46274;47.168;27.604;2022-11-22T09:36:35;99306.81;;;0.91;83.60
60427;BME280;46274;47.168;27.604;2022-11-22T09:43:06;99399.44;;;1.50;81.88
60427;BME280;46274;47.168;27.604;2022-11-22T09:55:30;99392.19;;;1.31;81.62
60427;BME280;46274;47.168;27.604;2022-11-22T10:07:46;99395.63;;;1.84;81.24
60427;BME280;46274;47.168;27.604;2022-11-22T10:13:52;99336.81;;;0.83;83.00
60427;BME280;46274;47.168;27.604;2022-11-22T10:20:12;99274.84;;;1.01;81.65
60427;BME280;46274;47.168;27.604;2022-11-22T10:26:31;99399.41;;;1.91;81.45
60427;BME280;46274;47.168;27.604;2022-11-22T11:04:04;99322.50;;;1.65;80.80
60427;BME280;46274;47.168;27.604;2022-11-22T11:10:15;99382.72;;;2.28;80.91
60427;BME280;46274;47.168;27.604;2022-11-22T11:16:35;99311.69;;;2.15;80.08
60427;BME280;46274;47.168;27.604;2022-11-22T11:22:38;99330.53;;;2.04;80.10
60427;BME280;46274;47.168;27.604;2022-11-22T11:35:50;99395.09;;;2.29;80.31
60427;BME280;46274;47.168;27.604;2022-11-22T11:41:53;99447.72;;;2.38;79.87
60427;BME280;46274;47.168;27.604;2022-11-22T11:47:55;99408.03;;;2.33;79.82
60427;BME280;46274;47.168;27.604;2022-11-22T11:54:03;99448.97;;;2.63;80.04
60427;BME280;46274;47.168;27.604;2022-11-22T12:00:19;99456.75;;;2.56;80.19
60427;BME280;46274;47.168;27.604;2022-11-22T12:06:27;99422.28;;;1.74;81.84
60427;BME280;46274;47.168;27.604;2022-11-22T12:12:55;99458.28;;;2.49;80.41
60427;BME280;46274;47.168;27.604;2022-11-22T12:25:34;99418.38;;;1.38;83.51
60427;BME280;46274;47.168;27.604;2022-11-22T12:31:56;99437.03;;;2.57;81.03
60427;BME280;46274;47.168;27.604;2022-11-22T12:38:11;99358.78;;;1.97;80.92
60427;BME280;46274;47.168;27.604;2022-11-22T12:44:17;99436.19;;;2.47;80.76
60427;BME280;46274;47.168;27.604;2022-11-22T12:50:29;99357.06;;;1.77;81.86
60427;BME280;46274;47.168;27.604;2022-11-22T12:56:54;99422.53;;;2.50;81.13
60427;BME280;46274;47.168;27.604;2022-11-22T13:03:02;99411.69;;;2.61;80.67
60427;BME280;46274;47.168;27.604;2022-11-22T13:09:11;99381.19;;;2.25;80.75
60427;BME280;46274;47.168;27.604;2022-11-22T13:15:30;99345.00;;;1.82;80.37
60427;BME280;46274;47.168;27.604;2022-11-22T13:27:55;99314.47;;;1.56;82.05
60427;BME280;46274;47.168;27.604;2022-11-22T13:34:25;99305.50;;;1.16;82.26
60427;BME280;46274;47.168;27.604;2022-11-22T13:46:51;99415.53;;;1.29;83.96
60427;BME280;46274;47.168;27.604;2022-11-22T13:52:54;99338.63;;;0.62;85.25
60427;BME280;46274;47.168;27.604;2022-11-22T14:11:47;99405.00;;;1.07;84.44
60427;BME280;46274;47.168;27.604;2022-11-22T14:24:44;99412.66;;;0.91;86.77
60427;BME280;46274;47.168;27.604;2022-11-22T14:30:51;99411.28;;;0.75;86.40
60427;BME280;46274;47.168;27.604;2022-11-22T14:43:31;99403.41;;;0.53;86.18
60427;BME280;46274;47.168;27.604;2022-11-22T14:49:47;99370.28;;;0.13;85.12
60427;BME280;46274;47.168;27.604;2022-11-22T14:55:55;99281.69;;;-0.21;85.75
60427;BME280;46274;47.168;27.604;2022-11-22T15:28:49;99461.00;;;0.44;83.34
60427;BME280;46274;47.168;27.604;2022-11-22T15:35:22;99421.94;;;0.22;83.12
60427;BME280;46274;47.168;27.604;2022-11-22T15:41:49;99483.41;;;0.30;84.09
60427;BME280;46274;47.168;27.604;2022-11-22T15:48:35;99472.19;;;0.27;84.21
60427;BME280;46274;47.168;27.604;2022-11-22T15:54:59;99458.97;;;-0.30;82.65
60427;BME280;46274;47.168;27.604;2022-11-22T16:01:21;99465.13;;;-0.07;84.25
60427;BME280;46274;47.168;27.604;2022-11-22T16:13:37;99388.34;;;-0.79;83.61
60427;BME280;46274;47.168;27.604;2022-11-22T16:19:40;99495.00;;;-0.03;83.71
60427;BME280;46274;47.168;27.604;2022-11-22T16:25:46;99472.88;;;-0.37;84.42
60427;BME280;46274;47.168;27.604;2022-11-22T16:31:49;99492.00;;;-0.32;84.38
60427;BME280;46274;47.168;27.604;2022-11-22T16:37:51;99495.38;;;-0.53;85.24
60427;BME280;46274;47.168;27.604;2022-11-22T16:44:00;99484.03;;;-0.43;84.19
60427;BME280;46274;47.168;27.604;2022-11-22T16:50:02;99455.34;;;-0.51;83.94
60427;BME280;46274;47.168;27.604;2022-11-22T16:56:05;99383.03;;;-1.01;83.29
60427;BME280;46274;47.168;27.604;2022-11-22T17:02:11;99511.81;;;-0.36;83.28
60427;BME280;46274;47.168;27.604;2022-11-22T17:08:16;99467.06;;;-0.31;83.52
60427;BME280;46274;47.168;27.604;2022-11-22T17:14:18;99492.00;;;-0.32;84.24
60427;BME280;46274;47.168;27.604;2022-11-22T17:20:20;99494.84;;;-0.80;84.01
60427;BME280;46274;47.168;27.604;2022-11-22T17:26:22;99462.38;;;-0.61;84.54
60427;BME280;46274;47.168;27.604;2022-11-22T17:32:24;99431.47;;;-1.20;85.96
60427;BME280;46274;47.168;27.604;2022-11-22T17:38:26;99503.25;;;-0.29;83.76
60427;BME280;46274;47.168;27.604;2022-11-22T17:44:28;99503.59;;;-0.56;85.23
60427;BME280;46274;47.168;27.604;2022-11-22T17:50:30;99492.91;;;-0.90;86.28
60427;BME280;46274;47.168;27.604;2022-11-22T17:56:33;99367.97;;;-1.47;85.47
60427;BME280;46274;47.168;27.604;2022-11-22T18:02:37;99480.47;;;-1.36;85.43
60427;BME280;46274;47.168;27.604;2022-11-22T18:08:40;99393.63;;;-1.70;86.26
60427;BME280;46274;47.168;27.604;2022-11-22T18:14:48;99385.63;;;-1.35;84.04
60427;BME280;46274;47.168;27.604;2022-11-22T18:20:52;99391.72;;;-1.92;85.58
60427;BME280;46274;47.168;27.604;2022-11-22T18:26:55;99456.38;;;-1.45;85.82
60427;BME280;46274;47.168;27.604;2022-11-22T18:33:00;99234.31;;;-3.00;85.04
60427;BME280;46274;47.168;27.604;2022-11-22T18:39:03;99342.69;;;-2.00;85.26
60427;BME280;46274;47.168;27.604;2022-11-22T18:45:06;99451.19;;;-1.47;84.15
60427;BME280;46274;47.168;27.604;2022-11-22T18:51:09;99277.88;;;-2.68;85.18
60427;BME280;46274;47.168;27.604;2022-11-22T18:57:13;99451.06;;;-2.17;87.68
60427;BME280;46274;47.168;27.604;2022-11-22T19:03:34;99375.41;;;-2.47;86.48
60427;BME280;46274;47.168;27.604;2022-11-22T19:09:40;99352.13;;;-2.20;85.04
60427;BME280;46274;47.168;27.604;2022-11-22T19:15:44;99468.56;;;-1.78;86.20
60427;BME280;46274;47.168;27.604;2022-11-22T19:21:47;99477.19;;;-1.63;84.24
60427;BME280;46274;47.168;27.604;2022-11-22T19:27:50;99264.53;;;-2.31;84.01
60427;BME280;46274;47.168;27.604;2022-11-22T19:33:53;99470.81;;;-2.09;86.97
60427;BME280;46274;47.168;27.604;2022-11-22T19:39:55;99453.88;;;-1.36;84.40
60427;BME280;46274;47.168;27.604;2022-11-22T19:46:00;99330.41;;;-2.01;84.73
60427;BME280;46274;47.168;27.604;2022-11-22T19:52:05;99469.91;;;-1.13;85.07
60427;BME280;46274;47.168;27.604;2022-11-22T19:58:08;99274.75;;;-2.61;86.07
60427;BME280;46274;47.168;27.604;2022-11-22T20:04:12;99379.38;;;-1.81;84.94
60427;BME280;46274;47.168;27.604;2022-11-22T20:10:16;99445.16;;;-1.38;85.79
60427;BME280;46274;47.168;27.604;2022-11-22T20:16:21;99393.75;;;-1.72;84.69
60427;BME280;46274;47.168;27.604;2022-11-22T20:22:26;99472.66;;;-1.50;86.29
60427;BME280;46274;47.168;27.604;2022-11-22T20:28:29;99230.72;;;-2.99;86.26
60427;BME280;46274;47.168;27.604;2022-11-22T20:34:32;99475.78;;;-1.56;87.62
60427;BME280;46274;47.168;27.604;2022-11-22T20:40:35;99459.66;;;-1.42;85.84
60427;BME280;46274;47.168;27.604;2022-11-22T20:46:39;99334.91;;;-2.62;86.50
60427;BME280;46274;47.168;27.604;2022-11-22T20:52:45;99472.22;;;-1.92;85.85
60427;BME280;46274;47.168;27.604;2022-11-22T20:58:48;99331.88;;;-2.45;87.65
60427;BME280;46274;47.168;27.604;2022-11-22T21:04:52;99447.06;;;-1.51;86.25
60427;BME280;46274;47.168;27.604;2022-11-22T21:11:05;99428.28;;;-1.96;87.08
60427;BME280;46274;47.168;27.604;2022-11-22T21:17:09;99443.91;;;-2.41;87.54
60427;BME280;46274;47.168;27.604;2022-11-22T21:23:32;99427.16;;;-1.81;87.18
60427;BME280;46274;47.168;27.604;2022-11-22T21:29:36;99321.06;;;-2.42;87.11
60427;BME280;46274;47.168;27.604;2022-11-22T21:35:39;99408.47;;;-2.03;87.79
60427;BME280;46274;47.168;27.604;2022-11-22T21:41:46;99407.84;;;-1.83;85.68
60427;BME280;46274;47.168;27.604;2022-11-22T21:48:03;99415.31;;;-2.25;87.50
60427;BME280;46274;47.168;27.604;2022-11-22T21:54:06;99359.03;;;-2.41;88.79
60427;BME280;46274;47.168;27.604;2022-11-22T22:00:18;99384.53;;;-1.79;85.92
60427;BME280;46274;47.168;27.604;2022-11-22T22:06:21;99281.00;;;-2.14;85.52
60427;BME280;46274;47.168;27.604;2022-11-22T22:12:26;99294.78;;;-2.33;86.23
60427;BME280;46274;47.168;27.604;2022-11-22T22:18:33;99389.22;;;-1.47;85.12
60427;BME280;46274;47.168;27.604;2022-11-22T22:24:36;99355.84;;;-1.74;85.17
60427;BME280;46274;47.168;27.604;2022-11-22T22:30:38;99379.72;;;-1.39;84.95
60427;BME280;46274;47.168;27.604;2022-11-22T22:36:41;99379.31;;;-1.57;85.66
60427;BME280;46274;47.168;27.604;2022-11-22T22:42:43;99315.28;;;-2.11;86.76
60427;BME280;46274;47.168;27.604;2022-11-22T22:48:46;99191.31;;;-2.69;85.98
60427;BME280;46274;47.168;27.604;2022-11-22T22:54:48;99246.75;;;-2.53;85.91
60427;BME280;46274;47.168;27.604;2022-11-22T23:00:51;99353.34;;;-1.64;85.80
60427;BME280;46274;47.168;27.604;2022-11-22T23:06:53;99331.59;;;-1.69;86.08
60427;BME280;46274;47.168;27.604;2022-11-22T23:12:55;99343.47;;;-1.40;85.10
60427;BME280;46274;47.168;27.604;2022-11-22T23:18:57;99353.66;;;-2.04;86.34
60427;BME280;46274;47.168;27.604;2022-11-22T23:24:58;99245.16;;;-2.20;86.01
60427;BME280;46274;47.168;27.604;2022-11-22T23:31:14;99334.41;;;-1.60;85.67
60427;BME280;46274;47.168;27.604;2022-11-22T23:37:15;99334.00;;;-1.66;86.23
60427;BME280;46274;47.168;27.604;2022-11-22T23:43:17;99294.00;;;-1.87;86.21
60427;BME280;46274;47.168;27.604;2022-11-22T23:49:19;99238.84;;;-1.95;85.51
60427;BME280;46274;47.168;27.604;2022-11-22T23:55:21;99284.72;;;-1.82;86.19
